Time;durP1;ratioP1;P1;durP2;ratioP2;P2;SDS_P1;SDS_P2;PMS_P1;PMS_P2;Temp;Humidity;BMP_temperature;BMP_pressure;BME280_temperature;BME280_humidity;BME280_pressure;Samples;Min_cycle;Max_cycle;Signal;HPM_P1;HPM_P2
2021/12/19 00:00:09;;;;;;;7.68;5.30;;;;;;;4.60;100.00;103555.06;1043121;28;20334;-75
2021/12/19 00:00:41;;;;;;;7.22;5.45;;;;;;;4.64;100.00;103562.63;1044563;28;20289;-74
2021/12/19 00:01:29;;;;;;;9.45;5.72;;;;;;;4.69;100.00;103550.94;1042778;28;20346;-73
2021/12/19 00:02:58;;;;;;;9.52;5.45;;;;;;;4.74;100.00;103548.78;1043467;28;19921;-74
2021/12/19 00:03:47;;;;;;;8.88;5.40;;;;;;;4.70;100.00;103552.59;1044835;28;20362;-75
2021/12/19 00:04:55;;;;;;;8.38;5.65;;;;;;;4.72;100.00;103553.34;1047872;28;20275;-75
2021/12/19 00:08:49;;;;;;;11.00;5.18;;;;;;;4.64;100.00;103546.78;1038565;28;20796;-75
2021/12/19 00:09:21;;;;;;;7.50;4.75;;;;;;;4.70;100.00;103549.97;1030643;28;20293;-75
2021/12/19 00:09:53;;;;;;;9.43;5.80;;;;;;;4.70;100.00;103548.16;1044034;28;20286;-75
2021/12/19 00:10:24;;;;;;;10.23;6.38;;;;;;;4.72;100.00;103542.78;1043813;28;20280;-75
2021/12/19 00:10:57;;;;;;;9.07;5.65;;;;;;;4.67;100.00;103550.19;1043618;28;20780;-75
2021/12/19 00:11:32;;;;;;;9.70;5.72;;;;;;;4.70;100.00;103547.31;1047143;28;20472;-74
2021/12/19 00:12:04;;;;;;;12.13;4.90;;;;;;;4.72;100.00;103545.41;1047316;28;20350;-75
2021/12/19 00:12:35;;;;;;;8.65;5.97;;;;;;;4.68;100.00;103543.97;1047577;28;20282;-75
2021/12/19 00:13:08;;;;;;;12.27;6.38;;;;;;;4.67;100.00;103539.63;1047674;28;20358;-75
2021/12/19 00:13:40;;;;;;;9.38;5.60;;;;;;;4.67;100.00;103543.13;1047525;28;20714;-75
2021/12/19 00:14:12;;;;;;;8.48;5.63;;;;;;;4.68;100.00;103544.81;1047663;28;20671;-75
2021/12/19 00:14:43;;;;;;;10.50;5.97;;;;;;;4.71;100.00;103536.66;1047052;28;20487;-75
2021/12/19 00:15:15;;;;;;;16.27;6.65;;;;;;;4.73;100.00;103539.19;1043190;28;20283;-75
2021/12/19 00:15:46;;;;;;;11.13;6.70;;;;;;;4.72;100.00;103542.78;1039840;28;20288;-74
2021/12/19 00:16:18;;;;;;;9.10;6.22;;;;;;;4.76;100.00;103539.78;1043029;28;20626;-75
2021/12/19 00:16:51;;;;;;;9.75;5.88;;;;;;;4.75;100.00;103532.84;1039786;28;20280;-74
2021/12/19 00:17:22;;;;;;;9.63;6.55;;;;;;;4.77;100.00;103535.34;1044234;28;20765;-75
2021/12/19 00:17:54;;;;;;;10.25;7.47;;;;;;;4.76;100.00;103536.31;1047194;28;20289;-75
2021/12/19 00:18:26;;;;;;;10.65;6.40;;;;;;;4.74;100.00;103535.59;1047598;28;20287;-75
2021/12/19 00:19:03;;;;;;;10.43;7.10;;;;;;;4.76;100.00;103531.03;1047011;28;20286;-78
2021/12/19 00:19:35;;;;;;;10.18;7.25;;;;;;;4.77;100.00;103540.63;1035529;28;20283;-80
2021/12/19 00:20:07;;;;;;;11.63;7.38;;;;;;;4.76;100.00;103538.97;1038416;28;20284;-74
2021/12/19 00:20:58;;;;;;;10.82;6.95;;;;;;;4.76;100.00;103536.31;1039238;28;20851;-75
2021/12/19 00:21:44;;;;;;;11.02;7.55;;;;;;;4.71;100.00;103533.16;1044663;28;20396;-75
2021/12/19 00:22:15;;;;;;;12.13;6.72;;;;;;;4.73;100.00;103532.09;1041115;28;20294;-75
2021/12/19 00:22:47;;;;;;;11.90;6.93;;;;;;;4.72;100.00;103529.56;1043010;28;20279;-75
2021/12/19 00:23:18;;;;;;;13.73;7.32;;;;;;;4.71;100.00;103538.44;1045947;28;20287;-75
2021/12/19 00:23:51;;;;;;;13.60;7.43;;;;;;;4.71;100.00;103525.25;1044692;28;20290;-74
2021/12/19 00:24:24;;;;;;;12.35;7.28;;;;;;;4.70;100.00;103539.41;1043097;28;20314;-75
2021/12/19 00:24:55;;;;;;;11.20;7.45;;;;;;;4.72;100.00;103534.84;1043028;28;20276;-74
2021/12/19 00:25:27;;;;;;;13.40;7.05;;;;;;;4.65;100.00;103535.28;1044402;28;20627;-75
2021/12/19 00:25:59;;;;;;;12.65;7.63;;;;;;;4.70;100.00;103534.13;1047237;28;20311;-75
2021/12/19 00:26:30;;;;;;;12.90;7.20;;;;;;;4.69;100.00;103530.66;1046715;28;20656;-75
2021/12/19 00:27:02;;;;;;;9.85;6.75;;;;;;;4.70;100.00;103536.75;1047312;28;20303;-75
2021/12/19 00:27:33;;;;;;;11.80;7.22;;;;;;;4.64;100.00;103527.47;1043469;28;20275;-79
2021/12/19 00:28:05;;;;;;;11.73;7.47;;;;;;;4.71;100.00;103523.47;1045060;28;20285;-80
2021/12/19 00:28:37;;;;;;;12.90;8.23;;;;;;;4.66;100.00;103520.31;1043539;28;20619;-80
2021/12/19 00:29:08;;;;;;;13.02;7.13;;;;;;;4.70;100.00;103524.41;1043616;28;20661;-80
2021/12/19 00:29:40;;;;;;;12.63;7.50;;;;;;;4.65;100.00;103530.00;1047617;28;20278;-79
2021/12/19 00:30:11;;;;;;;12.88;7.68;;;;;;;4.62;100.00;103524.09;1047273;28;20275;-80
2021/12/19 00:30:43;;;;;;;10.27;7.10;;;;;;;4.65;100.00;103522.06;1047957;28;20283;-79
2021/12/19 00:31:20;;;;;;;12.82;7.60;;;;;;;4.66;100.00;103522.94;1048523;28;20333;-76
2021/12/19 00:31:51;;;;;;;11.27;7.82;;;;;;;4.62;100.00;103524.94;1043804;28;20282;-75
2021/12/19 00:32:23;;;;;;;11.85;7.30;;;;;;;4.61;100.00;103525.06;1044495;28;20657;-74
2021/12/19 00:32:54;;;;;;;12.35;7.07;;;;;;;4.63;100.00;103524.00;1042906;28;20298;-75
2021/12/19 00:33:26;;;;;;;11.10;7.72;;;;;;;4.70;100.00;103523.56;1044356;28;20649;-75
2021/12/19 00:33:59;;;;;;;12.10;7.05;;;;;;;4.72;100.00;103522.50;1044212;28;20366;-80
2021/12/19 00:34:31;;;;;;;16.85;7.47;;;;;;;4.71;100.00;103525.25;1043428;28;20358;-75
2021/12/19 00:35:03;;;;;;;9.82;6.50;;;;;;;4.72;100.00;103519.00;1043354;28;20700;-75
2021/12/19 00:35:38;;;;;;;12.50;7.85;;;;;;;4.76;100.00;103517.84;1044170;28;20283;-79
2021/12/19 00:36:10;;;;;;;10.13;7.63;;;;;;;4.72;100.00;103521.66;1048002;28;20637;-80
2021/12/19 00:36:42;;;;;;;11.55;7.43;;;;;;;4.73;100.00;103518.91;1047592;28;20360;-80
2021/12/19 00:37:14;;;;;;;12.05;7.85;;;;;;;4.75;100.00;103519.63;1044397;28;20284;-75
2021/12/19 00:37:53;;;;;;;13.13;7.60;;;;;;;4.76;100.00;103523.13;1044804;28;20283;-75
2021/12/19 00:38:26;;;;;;;9.50;7.07;;;;;;;4.70;100.00;103518.28;1042530;28;20716;-75
2021/12/19 00:38:57;;;;;;;11.65;8.10;;;;;;;4.66;100.00;103512.41;1041259;28;20283;-80
2021/12/19 00:39:30;;;;;;;11.82;8.85;;;;;;;4.69;100.00;103521.88;1041668;28;20650;-75
2021/12/19 00:40:02;;;;;;;10.13;7.55;;;;;;;4.71;100.00;103523.47;1039630;28;20634;-74
2021/12/19 00:40:34;;;;;;;12.15;8.02;;;;;;;4.70;100.00;103518.28;1039731;28;20291;-75
2021/12/19 00:41:06;;;;;;;12.35;7.70;;;;;;;4.70;100.00;103513.84;1043456;28;20301;-74
2021/12/19 00:41:37;;;;;;;10.10;8.00;;;;;;;4.71;100.00;103509.41;1039578;28;20804;-75
2021/12/19 00:42:09;;;;;;;9.57;6.90;;;;;;;4.69;100.00;103511.31;1044055;28;20295;-74
2021/12/19 00:42:42;;;;;;;12.88;7.65;;;;;;;4.69;100.00;103508.69;1040470;28;20685;-75
2021/12/19 00:43:24;;;;;;;9.13;6.63;;;;;;;4.69;100.00;103506.88;1043700;28;20283;-75
2021/12/19 00:44:07;;;;;;;12.45;7.53;;;;;;;4.70;100.00;103497.16;1047287;28;20471;-74
2021/12/19 00:44:40;;;;;;;13.50;7.82;;;;;;;4.71;100.00;103506.78;1044597;28;20286;-75
2021/12/19 00:45:30;;;;;;;9.52;6.63;;;;;;;4.73;100.00;103502.22;1047855;28;20779;-76
2021/12/19 00:46:07;;;;;;;10.60;6.65;;;;;;;4.63;100.00;103497.59;1047424;28;20349;-79
2021/12/19 00:46:52;;;;;;;13.18;6.32;;;;;;;4.66;100.00;103496.56;1047474;28;20776;-80
2021/12/19 00:47:23;;;;;;;8.43;4.95;;;;;;;4.67;100.00;103507.94;1046529;28;20294;-80
2021/12/19 00:47:55;;;;;;;6.63;5.50;;;;;;;4.64;100.00;103499.28;1047618;28;20275;-80
2021/12/19 00:48:26;;;;;;;8.77;6.03;;;;;;;4.63;100.00;103497.59;1047232;28;20283;-79
2021/12/19 00:48:57;;;;;;;8.68;5.03;;;;;;;4.59;100.00;103501.41;1047029;28;20657;-80
2021/12/19 00:49:36;;;;;;;7.22;4.75;;;;;;;4.60;100.00;103496.97;1048681;28;20283;-79
2021/12/19 00:50:08;;;;;;;6.60;4.65;;;;;;;4.61;100.00;103499.50;1048044;28;20281;-75
2021/12/19 00:50:46;;;;;;;5.57;4.38;;;;;;;4.61;100.00;103504.78;1043257;28;20275;-75
2021/12/19 00:51:22;;;;;;;4.82;4.32;;;;;;;4.59;100.00;103501.41;1042817;28;20287;-75
2021/12/19 00:51:53;;;;;;;7.30;5.32;;;;;;;4.55;100.00;103507.88;1040758;28;20288;-75
2021/12/19 00:52:25;;;;;;;7.63;5.68;;;;;;;4.60;100.00;103500.47;1043340;28;20279;-75
2021/12/19 00:52:57;;;;;;;8.27;5.97;;;;;;;4.62;100.00;103506.47;1039236;28;20789;-75
2021/12/19 00:53:28;;;;;;;7.25;5.75;;;;;;;4.64;100.00;103498.44;1039647;28;20286;-75
2021/12/19 00:54:00;;;;;;;7.50;5.32;;;;;;;4.61;100.00;103498.66;1043406;28;20279;-75
2021/12/19 00:54:32;;;;;;;9.07;6.03;;;;;;;4.60;100.00;103502.25;1043825;28;20732;-74
2021/12/19 00:55:04;;;;;;;10.00;6.20;;;;;;;4.57;100.00;103498.03;1047269;28;20314;-75
2021/12/19 00:55:36;;;;;;;8.65;5.95;;;;;;;4.59;100.00;103498.78;1047657;28;20290;-74
2021/12/19 00:56:08;;;;;;;8.07;5.70;;;;;;;4.61;100.00;103499.50;1047341;28;20636;-74
2021/12/19 00:56:44;;;;;;;8.65;5.60;;;;;;;4.58;100.00;103494.44;1038853;28;20661;-74
2021/12/19 00:57:16;;;;;;;6.95;5.40;;;;;;;4.64;100.00;103504.56;1035319;28;20775;-75
2021/12/19 00:57:48;;;;;;;8.50;5.38;;;;;;;4.63;100.00;103496.75;1032284;28;20282;-74
2021/12/19 00:58:20;;;;;;;8.82;7.05;;;;;;;4.57;100.00;103498.03;1036420;28;20284;-74
2021/12/19 00:58:52;;;;;;;10.18;5.97;;;;;;;4.60;100.00;103492.53;1044159;28;20275;-75
2021/12/19 00:59:23;;;;;;;8.32;5.78;;;;;;;4.61;100.00;103496.03;1040206;28;20334;-74
2021/12/19 00:59:55;;;;;;;8.00;6.43;;;;;;;4.67;100.00;103489.47;1039949;28;20291;-75
2021/12/19 01:00:31;;;;;;;9.65;5.97;;;;;;;4.64;100.00;103494.00;1044078;28;20294;-80
2021/12/19 01:01:05;;;;;;;11.10;6.55;;;;;;;4.65;100.00;103494.84;1038250;28;20379;-80
2021/12/19 01:01:37;;;;;;;8.85;6.45;;;;;;;4.66;100.00;103496.56;1044136;28;20291;-80
2021/12/19 01:02:09;;;;;;;13.50;6.93;;;;;;;4.65;100.00;103498.31;1042951;28;20276;-80
2021/12/19 01:02:41;;;;;;;10.82;6.57;;;;;;;4.67;100.00;103502.69;1043951;28;20762;-80
2021/12/19 01:03:12;;;;;;;9.40;6.97;;;;;;;4.68;100.00;103488.53;1042931;28;20279;-80
2021/12/19 01:03:46;;;;;;;9.95;7.07;;;;;;;4.69;100.00;103495.47;1043492;28;20311;-80
2021/12/19 01:04:19;;;;;;;10.07;7.05;;;;;;;4.68;100.00;103493.81;1047113;28;20299;-80
2021/12/19 01:04:51;;;;;;;9.43;6.10;;;;;;;4.72;100.00;103496.09;1047462;28;20270;-80
2021/12/19 01:05:23;;;;;;;11.63;6.95;;;;;;;4.67;100.00;103492.13;1046982;28;20303;-80
2021/12/19 01:05:55;;;;;;;9.98;6.45;;;;;;;4.65;100.00;103492.19;1043506;28;20284;-80
2021/12/19 01:06:28;;;;;;;10.30;6.80;;;;;;;4.69;100.00;103490.19;1040739;28;20311;-80
2021/12/19 01:07:01;;;;;;;8.82;6.07;;;;;;;4.65;100.00;103493.03;1043873;28;20283;-80
2021/12/19 01:07:32;;;;;;;10.85;6.45;;;;;;;4.62;100.00;103485.34;1044869;28;20360;-80
2021/12/19 01:08:05;;;;;;;9.45;6.20;;;;;;;4.63;100.00;103489.66;1048460;28;20278;-80
2021/12/19 01:08:36;;;;;;;9.88;6.07;;;;;;;4.63;100.00;103492.31;1044014;28;20629;-80
2021/12/19 01:09:08;;;;;;;8.48;6.10;;;;;;;4.67;100.00;103484.19;1044124;28;20286;-80
2021/12/19 01:09:40;;;;;;;13.25;6.05;;;;;;;4.68;100.00;103485.88;1044206;28;20274;-80
2021/12/19 01:10:12;;;;;;;7.13;6.38;;;;;;;4.67;100.00;103487.69;1044276;28;20290;-80
2021/12/19 01:10:46;;;;;;;8.50;6.80;;;;;;;4.69;100.00;103490.19;1044199;28;20285;-80
2021/12/19 01:11:17;;;;;;;8.13;6.45;;;;;;;4.68;100.00;103483.25;1037893;28;20291;-80
2021/12/19 01:11:49;;;;;;;11.43;6.57;;;;;;;4.71;100.00;103489.13;1040547;28;20280;-80
2021/12/19 01:12:21;;;;;;;11.30;6.22;;;;;;;4.70;100.00;103490.09;1040618;28;20292;-80
2021/12/19 01:12:53;;;;;;;8.98;6.60;;;;;;;4.72;100.00;103482.06;1040742;28;20315;-80
2021/12/19 01:13:25;;;;;;;8.38;6.32;;;;;;;4.74;100.00;103482.78;1043616;28;20302;-80
2021/12/19 01:13:56;;;;;;;9.13;5.72;;;;;;;4.71;100.00;103489.13;1044287;28;21279;-80
2021/12/19 01:14:28;;;;;;;10.75;6.22;;;;;;;4.73;100.00;103481.09;1048464;28;20644;-80
2021/12/19 01:15:00;;;;;;;8.68;5.78;;;;;;;4.74;100.00;103485.41;1048215;28;20300;-80
2021/12/19 01:15:32;;;;;;;7.60;5.97;;;;;;;4.74;100.00;103488.06;1048143;28;20274;-80
2021/12/19 01:16:04;;;;;;;7.00;6.10;;;;;;;4.76;100.00;103486.16;1048862;28;20309;-75
2021/12/19 01:16:35;;;;;;;9.77;6.50;;;;;;;4.76;100.00;103480.88;1048435;28;20283;-74
2021/12/19 01:17:08;;;;;;;7.82;5.75;;;;;;;4.77;100.00;103482.56;1047978;28;20287;-74
2021/12/19 01:17:40;;;;;;;6.25;5.22;;;;;;;4.76;100.00;103480.88;1048433;28;20294;-75
2021/12/19 01:18:12;;;;;;;10.68;6.30;;;;;;;4.74;100.00;103486.25;1048652;28;20282;-75
2021/12/19 01:18:44;;;;;;;9.60;6.28;;;;;;;4.71;100.00;103483.00;1044749;28;20380;-74
2021/12/19 01:19:15;;;;;;;13.35;5.80;;;;;;;4.73;100.00;103486.38;1047917;28;20287;-75
2021/12/19 01:19:47;;;;;;;7.68;6.20;;;;;;;4.75;100.00;103485.31;1048171;28;20278;-75
2021/12/19 01:20:22;;;;;;;9.15;6.13;;;;;;;4.77;100.00;103482.56;1047920;28;20279;-75
2021/12/19 01:20:54;;;;;;;8.40;5.18;;;;;;;4.77;100.00;103477.28;1048435;28;20285;-75
2021/12/19 01:21:25;;;;;;;8.68;5.88;;;;;;;4.71;100.00;103483.00;1043517;28;20769;-75
2021/12/19 01:21:57;;;;;;;7.80;5.43;;;;;;;4.70;100.00;103478.69;1039694;28;20280;-75
2021/12/19 01:22:28;;;;;;;6.47;5.00;;;;;;;4.68;100.00;103472.69;1036368;28;20628;-75
2021/12/19 01:23:02;;;;;;;7.00;4.75;;;;;;;4.66;100.00;103475.44;1040187;28;20286;-75
2021/12/19 01:23:34;;;;;;;6.43;5.22;;;;;;;4.67;100.00;103481.56;1040112;28;20337;-75
2021/12/19 01:24:06;;;;;;;9.50;5.40;;;;;;;4.66;100.00;103478.06;1044215;28;20287;-75
2021/12/19 01:24:37;;;;;;;7.35;5.63;;;;;;;4.62;100.00;103474.78;1034245;28;20278;-75
2021/12/19 01:25:09;;;;;;;7.57;5.20;;;;;;;4.63;100.00;103473.84;1040218;28;20418;-74
2021/12/19 01:25:41;;;;;;;9.13;5.10;;;;;;;4.62;100.00;103476.59;1040074;28;20637;-76
2021/12/19 01:26:13;;;;;;;6.88;5.28;;;;;;;4.63;100.00;103483.53;1038314;28;20284;-74
2021/12/19 01:26:45;;;;;;;6.15;4.85;;;;;;;4.63;100.00;103476.47;1039578;28;20280;-73
2021/12/19 01:27:17;;;;;;;5.82;4.75;;;;;;;4.66;100.00;103472.78;1040640;28;20288;-74
2021/12/19 01:27:48;;;;;;;9.32;5.43;;;;;;;4.67;100.00;103478.91;1040526;28;20414;-75
2021/12/19 01:28:20;;;;;;;8.02;5.63;;;;;;;4.67;100.00;103478.91;1040032;28;20758;-74
2021/12/19 01:28:52;;;;;;;8.20;5.47;;;;;;;4.67;100.00;103479.75;1044103;28;20288;-74
2021/12/19 01:29:23;;;;;;;7.45;4.90;;;;;;;4.72;100.00;103474.13;1040075;28;20797;-76
2021/12/19 01:29:55;;;;;;;8.18;4.53;;;;;;;4.67;100.00;103477.13;1044363;28;20378;-74
2021/12/19 01:30:26;;;;;;;8.27;4.93;;;;;;;4.67;100.00;103471.00;1048158;28;20285;-75
2021/12/19 01:30:58;;;;;;;7.60;5.00;;;;;;;4.71;100.00;103475.09;1044395;28;20279;-75
2021/12/19 01:31:29;;;;;;;10.88;5.57;;;;;;;4.70;100.00;103470.75;1047857;28;20982;-74
2021/12/19 01:32:01;;;;;;;8.45;5.18;;;;;;;4.65;100.00;103474.56;1048350;28;20779;-75
2021/12/19 01:32:35;;;;;;;7.28;5.05;;;;;;;4.63;100.00;103468.56;1041384;28;20319;-75
2021/12/19 01:33:07;;;;;;;6.57;5.10;;;;;;;4.67;100.00;103468.34;1039981;28;20298;-80
2021/12/19 01:33:38;;;;;;;6.63;5.28;;;;;;;4.67;100.00;103468.34;1041163;28;20755;-79
2021/12/19 01:34:13;;;;;;;6.55;5.00;;;;;;;4.69;100.00;103469.09;1037865;28;20287;-80
2021/12/19 01:34:44;;;;;;;8.20;5.03;;;;;;;4.66;100.00;103459.59;1044763;28;20315;-80
2021/12/19 01:35:17;;;;;;;8.50;5.68;;;;;;;4.64;100.00;103472.88;1043730;28;20372;-80
2021/12/19 01:35:49;;;;;;;6.93;5.43;;;;;;;4.67;100.00;103471.84;1041664;28;20363;-79
2021/12/19 01:36:23;;;;;;;6.93;4.88;;;;;;;4.70;100.00;103465.50;1045326;28;20295;-79
2021/12/19 01:36:56;;;;;;;8.63;5.40;;;;;;;4.68;100.00;103467.41;1043904;28;20283;-73
2021/12/19 01:37:28;;;;;;;7.75;5.43;;;;;;;4.69;100.00;103474.38;1040968;28;20290;-75
2021/12/19 01:38:00;;;;;;;6.47;4.82;;;;;;;4.72;100.00;103476.78;1043680;28;20279;-75
2021/12/19 01:38:32;;;;;;;10.50;5.60;;;;;;;4.71;100.00;103473.28;1036513;28;20272;-75
2021/12/19 01:39:03;;;;;;;8.20;5.15;;;;;;;4.71;100.00;103473.28;1040411;28;20290;-75
2021/12/19 01:39:35;;;;;;;7.03;4.80;;;;;;;4.73;100.00;103475.81;1039605;28;20637;-74
2021/12/19 01:40:08;;;;;;;7.60;5.40;;;;;;;4.73;100.00;103478.47;1040958;28;20280;-75
2021/12/19 01:40:39;;;;;;;7.93;5.32;;;;;;;4.74;100.00;103473.06;1048918;28;20792;-75
2021/12/19 01:41:11;;;;;;;7.68;5.70;;;;;;;4.74;100.00;103472.22;1044637;28;20280;-80
2021/12/19 01:41:54;;;;;;;6.15;5.55;;;;;;;4.77;100.00;103475.47;1045153;28;20283;-75
2021/12/19 01:42:34;;;;;;;7.20;5.00;;;;;;;4.76;100.00;103470.31;1041515;28;20279;-74
2021/12/19 01:43:06;;;;;;;8.77;4.93;;;;;;;4.71;100.00;103472.44;1041948;28;20307;-75
2021/12/19 01:43:38;;;;;;;7.97;5.50;;;;;;;4.71;100.00;103473.28;1043883;28;20049;-75
2021/12/19 01:44:09;;;;;;;8.07;6.07;;;;;;;4.73;100.00;103478.47;1041257;28;20808;-75
2021/12/19 01:44:41;;;;;;;8.82;5.43;;;;;;;4.74;100.00;103472.22;1044232;28;20475;-75
2021/12/19 01:45:15;;;;;;;9.57;5.32;;;;;;;4.75;100.00;103473.91;1048232;28;20289;-74
2021/12/19 01:45:46;;;;;;;5.72;4.70;;;;;;;4.74;100.00;103478.34;1045446;28;20306;-75
2021/12/19 01:46:18;;;;;;;7.93;5.70;;;;;;;4.74;100.00;103478.34;1047852;28;20293;-75
2021/12/19 01:46:50;;;;;;;9.60;5.53;;;;;;;4.70;100.00;103479.53;1048106;28;20300;-75
2021/12/19 01:47:21;;;;;;;8.15;5.25;;;;;;;4.71;100.00;103467.16;1045706;28;20276;-74
2021/12/19 01:47:53;;;;;;;5.93;5.25;;;;;;;4.70;100.00;103476.88;1047817;28;20605;-73
2021/12/19 01:48:26;;;;;;;6.50;5.10;;;;;;;4.71;100.00;103472.44;1047835;28;20282;-75
2021/12/19 01:48:58;;;;;;;6.40;5.03;;;;;;;4.75;100.00;103474.75;1043611;28;20777;-75
2021/12/19 01:49:30;;;;;;;8.70;5.70;;;;;;;4.77;100.00;103472.00;1044475;28;20283;-75
2021/12/19 01:50:03;;;;;;;10.15;5.55;;;;;;;4.77;100.00;103469.34;1048203;28;20283;-75
2021/12/19 01:50:36;;;;;;;6.18;4.95;;;;;;;4.79;100.00;103470.06;1042457;28;20276;-75
2021/12/19 01:51:07;;;;;;;7.18;5.10;;;;;;;4.81;100.00;103469.00;1043743;28;20280;-75
2021/12/19 01:51:39;;;;;;;6.43;4.38;;;;;;;4.81;100.00;103469.00;1043295;28;20297;-74
2021/12/19 01:52:11;;;;;;;7.10;5.13;;;;;;;4.76;100.00;103473.78;1044719;28;20378;-74
2021/12/19 01:52:42;;;;;;;9.38;4.80;;;;;;;4.76;100.00;103467.66;1047433;28;20289;-75
2021/12/19 01:53:16;;;;;;;7.78;5.25;;;;;;;4.77;100.00;103466.72;1048139;28;20279;-76
2021/12/19 01:53:48;;;;;;;6.18;4.63;;;;;;;4.72;100.00;103469.69;1048007;28;20275;-75
2021/12/19 01:54:19;;;;;;;7.18;5.03;;;;;;;4.71;100.00;103467.16;1043656;28;20283;-75
2021/12/19 01:54:51;;;;;;;6.75;4.38;;;;;;;4.67;100.00;103473.63;1043645;28;20290;-75
2021/12/19 01:55:22;;;;;;;7.88;4.85;;;;;;;4.64;100.00;103469.41;1040557;28;20284;-74
2021/12/19 01:55:55;;;;;;;6.40;4.18;;;;;;;4.73;100.00;103465.25;1040108;28;20785;-75
2021/12/19 01:56:26;;;;;;;6.00;4.47;;;;;;;4.71;100.00;103462.72;1039476;28;20286;-74
2021/12/19 01:56:58;;;;;;;5.40;4.35;;;;;;;4.73;100.00;103459.97;1040607;28;20288;-75
2021/12/19 01:57:30;;;;;;;7.07;4.82;;;;;;;4.72;100.00;103468.84;1044125;28;20279;-75
2021/12/19 01:58:01;;;;;;;7.10;4.65;;;;;;;4.73;100.00;103458.19;1044306;28;21752;-74
2021/12/19 01:58:35;;;;;;;6.13;3.85;;;;;;;4.73;100.00;103457.34;1048586;28;20656;-80
2021/12/19 01:59:10;;;;;;;8.45;4.88;;;;;;;4.75;100.00;103458.06;1047658;28;20278;-80
2021/12/19 01:59:42;;;;;;;7.90;4.18;;;;;;;4.77;100.00;103458.78;1044781;28;20341;-80
2021/12/19 02:00:41;;;;;;;7.25;4.95;;;;;;;4.78;100.00;103457.84;1044099;28;20275;-80
2021/12/19 02:01:13;;;;;;;11.98;3.63;;;;;;;4.78;100.00;103460.47;1036856;28;20289;-80
2021/12/19 02:01:50;;;;;;;8.07;3.60;;;;;;;4.78;100.00;103455.19;1039788;28;20272;-80
2021/12/19 02:02:22;;;;;;;5.53;3.67;;;;;;;4.79;100.00;103457.72;1037315;28;20280;-80
2021/12/19 02:02:54;;;;;;;6.75;4.25;;;;;;;4.76;100.00;103451.81;1036913;28;20284;-80
2021/12/19 02:03:26;;;;;;;6.40;4.75;;;;;;;4.77;100.00;103445.59;1041267;28;20283;-80
2021/12/19 02:03:58;;;;;;;10.18;5.30;;;;;;;4.78;100.00;103448.13;1043988;28;20338;-80
2021/12/19 02:04:32;;;;;;;8.77;4.68;;;;;;;4.80;100.00;103451.47;1040326;28;20283;-80
2021/12/19 02:05:04;;;;;;;8.90;4.72;;;;;;;4.79;100.00;103451.59;1043922;28;20279;-80
2021/12/19 02:05:36;;;;;;;9.48;4.63;;;;;;;4.78;100.00;103457.84;1041127;28;20280;-80
2021/12/19 02:06:08;;;;;;;7.72;4.68;;;;;;;4.78;100.00;103455.19;1040554;28;20284;-80
2021/12/19 02:06:40;;;;;;;9.52;4.78;;;;;;;4.80;100.00;103453.28;1044132;28;20280;-80
2021/12/19 02:07:12;;;;;;;6.72;4.45;;;;;;;4.81;100.00;103452.31;1039877;28;20280;-80
2021/12/19 02:07:46;;;;;;;9.32;5.05;;;;;;;4.81;100.00;103447.88;1040180;28;20280;-80
2021/12/19 02:08:18;;;;;;;7.40;4.38;;;;;;;4.79;100.00;103449.78;1044074;28;20355;-77
2021/12/19 02:08:53;;;;;;;8.93;4.75;;;;;;;4.78;100.00;103452.56;1046182;28;20267;-75
2021/12/19 02:09:25;;;;;;;8.23;4.03;;;;;;;4.79;100.00;103454.22;1044985;28;20288;-75
2021/12/19 02:09:56;;;;;;;7.25;4.55;;;;;;;4.79;100.00;103449.78;1039435;28;20300;-75
2021/12/19 02:10:31;;;;;;;7.80;4.55;;;;;;;4.78;100.00;103444.63;1035729;28;20814;-75
2021/12/19 02:11:02;;;;;;;6.82;4.90;;;;;;;4.79;100.00;103448.94;1034835;28;20274;-75
2021/12/19 02:11:35;;;;;;;5.35;4.25;;;;;;;4.78;100.00;103445.47;1041148;28;20355;-75
2021/12/19 02:12:08;;;;;;;5.72;4.10;;;;;;;4.80;100.00;103446.19;1044690;28;20654;-74
2021/12/19 02:12:39;;;;;;;9.18;4.45;;;;;;;4.81;100.00;103447.88;1043896;28;20284;-75
2021/12/19 02:13:13;;;;;;;5.88;4.13;;;;;;;4.83;100.00;103445.97;1043544;28;20275;-74
2021/12/19 02:13:45;;;;;;;8.35;4.50;;;;;;;4.84;100.00;103441.53;1040870;28;20512;-75
2021/12/19 02:14:17;;;;;;;9.38;4.65;;;;;;;4.82;100.00;103448.72;1044321;28;20669;-75
2021/12/19 02:14:49;;;;;;;5.43;3.97;;;;;;;4.80;100.00;103445.34;1043369;28;20279;-74
2021/12/19 02:15:22;;;;;;;6.85;4.07;;;;;;;4.80;100.00;103450.63;1044526;28;20284;-75
2021/12/19 02:15:54;;;;;;;5.75;4.20;;;;;;;4.76;100.00;103449.19;1043785;28;20823;-74
2021/12/19 02:16:28;;;;;;;7.63;4.22;;;;;;;4.73;100.00;103449.41;1045540;28;20292;-77
2021/12/19 02:17:00;;;;;;;6.32;4.25;;;;;;;4.77;100.00;103454.34;1048775;28;20301;-75
2021/12/19 02:17:34;;;;;;;6.22;3.90;;;;;;;4.80;100.00;103440.06;1045083;28;20314;-79
2021/12/19 02:18:21;;;;;;;8.50;4.63;;;;;;;4.80;100.00;103445.34;1047577;28;20618;-74
2021/12/19 02:18:53;;;;;;;6.35;3.85;;;;;;;4.80;100.00;103440.91;1042572;28;20626;-76
2021/12/19 02:19:25;;;;;;;7.22;4.57;;;;;;;4.81;100.00;103439.97;1046714;28;20287;-75
2021/12/19 02:19:57;;;;;;;5.47;3.85;;;;;;;4.83;100.00;103439.84;1047902;28;20274;-74
2021/12/19 02:20:37;;;;;;;4.70;3.45;;;;;;;4.82;100.00;103436.34;1044735;28;20653;-74
2021/12/19 02:21:09;;;;;;;6.95;3.95;;;;;;;4.83;100.00;103434.56;1048143;28;20286;-74
2021/12/19 02:21:41;;;;;;;6.95;4.00;;;;;;;4.86;100.00;103434.31;1045135;28;20302;-74
2021/12/19 02:22:12;;;;;;;6.40;4.57;;;;;;;4.85;100.00;103435.28;1041152;28;20286;-74
2021/12/19 02:22:44;;;;;;;4.15;3.35;;;;;;;4.86;100.00;103423.75;1043900;28;20279;-75
2021/12/19 02:23:16;;;;;;;5.70;3.88;;;;;;;4.85;100.00;103427.38;1039453;28;20286;-75
2021/12/19 02:23:48;;;;;;;4.90;4.22;;;;;;;4.85;100.00;103422.09;1040558;28;20658;-74
2021/12/19 02:24:19;;;;;;;9.38;3.70;;;;;;;4.84;100.00;103433.59;1048155;28;20293;-74
2021/12/19 02:24:51;;;;;;;5.93;3.92;;;;;;;4.83;100.00;103426.63;1047917;28;20290;-75
2021/12/19 02:25:22;;;;;;;5.93;3.70;;;;;;;4.84;100.00;103425.69;1047239;28;20676;-74
2021/12/19 02:25:55;;;;;;;6.45;3.75;;;;;;;4.82;100.00;103432.88;1048090;28;20291;-75
2021/12/19 02:26:26;;;;;;;5.90;3.58;;;;;;;4.83;100.00;103429.28;1047673;28;20279;-75
2021/12/19 02:26:58;;;;;;;6.95;4.10;;;;;;;4.83;100.00;103429.28;1048186;28;20282;-75
2021/12/19 02:27:29;;;;;;;8.93;4.25;;;;;;;4.85;100.00;103430.00;1048350;28;20780;-80
2021/12/19 02:28:02;;;;;;;5.97;4.30;;;;;;;4.82;100.00;103428.44;1040474;28;20284;-80
2021/12/19 02:28:34;;;;;;;5.72;3.85;;;;;;;4.83;100.00;103439.84;1039879;28;20290;-81
2021/12/19 02:29:06;;;;;;;7.25;3.92;;;;;;;4.83;100.00;103432.75;1039512;28;20295;-80
2021/12/19 02:29:37;;;;;;;10.07;4.45;;;;;;;4.84;100.00;103430.97;1036882;28;20283;-80
2021/12/19 02:30:11;;;;;;;6.55;4.10;;;;;;;4.84;100.00;103433.59;1044450;28;20272;-80
2021/12/19 02:30:42;;;;;;;8.60;3.63;;;;;;;4.83;100.00;103435.41;1047880;28;20270;-81
2021/12/19 02:31:14;;;;;;;7.22;4.18;;;;;;;4.83;100.00;103429.28;1045408;28;20284;-75
2021/12/19 02:31:46;;;;;;;7.82;4.28;;;;;;;4.83;100.00;103435.41;1047595;28;20278;-75
2021/12/19 02:32:17;;;;;;;7.53;4.25;;;;;;;4.83;100.00;103434.56;1043823;28;20704;-75
2021/12/19 02:32:48;;;;;;;6.38;4.63;;;;;;;4.82;100.00;103422.31;1039751;28;20294;-75
2021/12/19 02:33:24;;;;;;;10.70;5.43;;;;;;;4.84;100.00;103425.69;1039811;28;20292;-75
2021/12/19 02:34:37;;;;;;;7.18;4.53;;;;;;;4.83;100.00;103426.63;1046448;28;20286;-76
2021/12/19 02:35:14;;;;;;;7.28;4.18;;;;;;;4.82;100.00;103425.78;1043732;28;20290;-75
2021/12/19 02:35:55;;;;;;;6.45;3.95;;;;;;;4.84;100.00;103425.69;1039452;28;20611;-75
2021/12/19 02:36:42;;;;;;;7.28;4.75;;;;;;;4.86;100.00;103423.75;1035388;28;20273;-75
2021/12/19 02:37:48;;;;;;;10.73;4.22;;;;;;;4.85;100.00;103422.91;1042411;28;20689;-75
2021/12/19 02:48:18;;;;;;;6.55;3.28;;;;;;;4.88;100.00;103411.28;1047704;28;20283;-81
2021/12/19 02:48:49;;;;;;;5.22;2.90;;;;;;;4.88;100.00;103411.28;1045033;28;20792;-81